createdAt,value
2017-03-05T00:00:49.842Z,93.89
2017-03-05T00:02:00.551Z,93.42
2017-03-05T00:03:11.242Z,93.61
2017-03-05T00:04:21.577Z,93.61
2017-03-05T00:05:32.292Z,93.04
2017-03-05T00:06:43.039Z,93.51
2017-03-05T00:07:53.732Z,93.61
2017-03-05T00:09:04.441Z,92.57
2017-03-05T00:10:15.140Z,92.66
2017-03-05T00:11:25.446Z,92.76
2017-03-05T00:12:36.159Z,93.23
2017-03-05T00:13:46.854Z,93.61
2017-03-05T00:14:57.594Z,92.76
2017-03-05T00:16:07.911Z,92.47
2017-03-05T00:17:18.637Z,92.85
2017-03-05T00:18:29.377Z,92.76
2017-03-05T00:19:40.079Z,92.76
2017-03-05T00:20:50.789Z,92.85
2017-03-05T00:22:01.481Z,92.94
2017-03-05T00:23:12.178Z,92.94
2017-03-05T00:24:22.487Z,92.94
2017-03-05T00:25:33.174Z,92.57
2017-03-05T00:26:43.895Z,92.38
2017-03-05T00:27:54.609Z,92.47
2017-03-05T00:29:05.300Z,92.47
2017-03-05T00:30:15.591Z,92.47
2017-03-05T00:31:26.299Z,92.76
2017-03-05T00:32:37.000Z,92.76
2017-03-05T00:33:47.693Z,92.85
2017-03-05T00:34:58.392Z,92.57
2017-03-05T00:36:08.691Z,92.38
2017-03-05T00:37:18.997Z,92.38
2017-03-05T00:38:29.318Z,92.19
2017-03-05T00:39:40.020Z,92.76
2017-03-05T00:40:50.735Z,92.38
2017-03-05T00:42:01.439Z,92.38
2017-03-05T00:43:11.756Z,92.1
2017-03-05T00:44:22.470Z,91.72
2017-03-05T00:45:33.153Z,91.34
2017-03-05T00:46:43.878Z,92
2017-03-05T00:47:54.583Z,91.25
2017-03-05T00:49:05.275Z,91.63
2017-03-05T00:50:15.980Z,91.72
2017-03-05T00:51:26.301Z,91.63
2017-03-05T00:52:37.017Z,91.72
2017-03-05T00:53:47.714Z,91.15
2017-03-05T00:54:58.406Z,91.06
2017-03-05T00:56:09.165Z,91.15
2017-03-05T00:57:19.857Z,91.53
2017-03-05T00:58:30.150Z,91.34
2017-03-05T00:59:40.839Z,92.19
2017-03-05T01:00:51.552Z,91.63
2017-03-05T01:02:02.244Z,92.38
2017-03-05T01:03:12.540Z,92
2017-03-05T01:04:22.863Z,92
2017-03-05T01:05:33.167Z,91.25
2017-03-05T01:06:43.864Z,91.63
2017-03-05T01:07:54.559Z,91.72
2017-03-05T01:09:05.262Z,91.25
2017-03-05T01:10:15.958Z,91.72
2017-03-05T01:11:26.899Z,92.29
2017-03-05T01:12:37.600Z,92.85
2017-03-05T01:13:48.320Z,92.76
2017-03-05T01:14:59.024Z,93.61
2017-03-05T01:16:09.738Z,93.51
2017-03-05T01:17:20.056Z,93.04
2017-03-05T01:18:30.368Z,93.23
2017-03-05T01:19:41.118Z,93.32
2017-03-05T01:20:51.818Z,92.85
2017-03-05T01:22:02.537Z,92.66
2017-03-05T01:23:13.263Z,93.23
2017-03-05T01:24:23.574Z,93.32
2017-03-05T01:25:34.298Z,92.76
2017-03-05T01:26:45.031Z,92.38
2017-03-05T01:27:55.745Z,92.19
2017-03-05T01:29:06.455Z,92.38
2017-03-05T01:30:16.758Z,91.34
2017-03-05T01:31:27.090Z,91.44
2017-03-05T01:32:37.802Z,91.44
2017-03-05T01:33:48.512Z,91.63
2017-03-05T01:34:59.224Z,91.44
2017-03-05T01:36:09.927Z,91.15
2017-03-05T01:37:20.258Z,91.34
2017-03-05T01:38:30.943Z,91.06
2017-03-05T01:39:41.644Z,90.3
2017-03-05T01:40:52.337Z,91.15
2017-03-05T01:42:03.042Z,90.3
2017-03-05T01:43:13.341Z,90.59
2017-03-05T01:44:24.052Z,89.83
2017-03-05T01:45:34.763Z,89.64
2017-03-05T01:46:47.479Z,90.02
2017-03-05T01:47:58.234Z,89.83
2017-03-05T01:49:08.538Z,90.02
2017-03-05T01:50:19.220Z,90.02
2017-03-05T01:51:29.934Z,90.02
2017-03-05T01:52:40.634Z,89.73
2017-03-05T01:53:51.326Z,89.73
2017-03-05T01:55:02.042Z,89.73
2017-03-05T01:56:12.764Z,89.73
2017-03-05T01:57:23.065Z,89.92
2017-03-05T01:58:33.780Z,89.64
2017-03-05T01:59:44.465Z,89.64
2017-03-05T02:00:55.170Z,89.45
2017-03-05T02:02:05.487Z,89.45
2017-03-05T02:03:16.187Z,89.64
2017-03-05T02:04:26.890Z,89.36
2017-03-05T02:05:37.199Z,88.7
2017-03-05T02:06:47.900Z,89.07
2017-03-05T02:07:58.627Z,89.45
2017-03-05T02:09:09.356Z,88.79
2017-03-05T02:10:20.014Z,89.54
2017-03-05T02:11:30.323Z,89.36
2017-03-05T02:12:41.022Z,88.79
2017-03-05T02:13:51.713Z,88.79
2017-03-05T02:15:02.427Z,89.26
2017-03-05T02:16:13.126Z,89.26
2017-03-05T02:17:23.830Z,89.07
2017-03-05T02:18:34.518Z,89.36
2017-03-05T02:19:45.243Z,89.64
2017-03-05T02:20:55.942Z,89.73
2017-03-05T02:22:06.653Z,89.45
2017-03-05T02:23:17.345Z,89.83
2017-03-05T02:24:27.653Z,90.4
2017-03-05T02:25:38.367Z,90.21
2017-03-05T02:26:49.060Z,89.64
2017-03-05T02:27:59.772Z,89.83
2017-03-05T02:29:10.489Z,90.11
2017-03-05T02:30:20.817Z,89.73
2017-03-05T02:31:31.509Z,90.11
2017-03-05T02:32:42.229Z,89.54
2017-03-05T02:33:52.937Z,88.7
2017-03-05T02:35:03.647Z,88.98
2017-03-05T02:36:13.952Z,89.36
2017-03-05T02:37:24.661Z,88.89
2017-03-05T02:38:35.368Z,88.79
2017-03-05T02:39:46.056Z,89.45
2017-03-05T02:40:56.762Z,89.17
2017-03-05T02:42:07.475Z,88.98
2017-03-05T02:43:18.172Z,89.26
2017-03-05T02:44:28.874Z,89.17
2017-03-05T02:45:39.182Z,89.26
2017-03-05T02:46:49.905Z,89.54
2017-03-05T02:48:00.599Z,89.36
2017-03-05T02:49:11.291Z,90.3
2017-03-05T02:50:21.996Z,90.49
2017-03-05T02:51:32.684Z,91.06
2017-03-05T02:52:43.389Z,91.3
2017-03-05T02:53:54.082Z,91.91
2017-03-05T02:55:04.795Z,91.72
2017-03-05T02:56:15.501Z,91.58
2017-03-05T02:57:26.188Z,91.44
2017-03-05T02:58:36.874Z,90.64
2017-03-05T02:59:47.578Z,90.26
2017-03-05T03:00:58.270Z,90.54
2017-03-05T03:02:08.985Z,91.2
2017-03-05T03:03:19.997Z,91.3
2017-03-05T03:04:30.292Z,91.11
2017-03-05T03:05:40.984Z,91.39
2017-03-05T03:06:51.720Z,91.82
2017-03-05T03:08:02.427Z,92
2017-03-05T03:09:13.130Z,92.19
2017-03-05T03:10:23.425Z,91.63
2017-03-05T03:11:34.154Z,90.49
2017-03-05T03:12:44.862Z,90.3
2017-03-05T03:13:55.585Z,90.02
2017-03-05T03:15:09.861Z,89.64
2017-03-05T03:16:20.154Z,89.54
2017-03-05T03:17:30.848Z,89.54
2017-03-05T03:18:41.157Z,89.26
2017-03-05T03:19:51.863Z,89.26
2017-03-05T03:21:02.915Z,89.36
2017-03-05T03:22:13.641Z,88.79
2017-03-05T03:23:24.350Z,88.79
2017-03-05T03:24:35.059Z,89.26
2017-03-05T03:25:45.761Z,89.36
2017-03-05T03:26:56.463Z,88.89
2017-03-05T03:28:07.173Z,89.26
2017-03-05T03:29:17.880Z,89.83
2017-03-05T03:30:28.579Z,89.64
2017-03-05T03:31:39.303Z,89.64
2017-03-05T03:32:50.016Z,88.79
2017-03-05T03:34:00.718Z,89.17
2017-03-05T03:35:11.442Z,88.51
2017-03-05T03:36:21.739Z,88.23
2017-03-05T03:37:32.433Z,88.32
2017-03-05T03:38:43.142Z,88.7
2017-03-05T03:39:53.863Z,88.79
2017-03-05T03:41:04.555Z,88.89
2017-03-05T03:42:15.280Z,88.98
2017-03-05T03:43:25.987Z,88.98
2017-03-05T03:44:36.699Z,89.07
2017-03-05T03:45:47.413Z,88.79
2017-03-05T03:46:58.102Z,89.07
2017-03-05T03:48:08.828Z,89.26
2017-03-05T03:49:19.520Z,88.7
2017-03-05T03:50:30.222Z,88.7
2017-03-05T03:51:40.926Z,88.79
2017-03-05T03:52:51.631Z,88.89
2017-03-05T03:54:02.319Z,88.98
2017-03-05T03:55:13.049Z,88.32
2017-03-05T03:56:23.774Z,88.6
2017-03-05T03:57:33.278Z,88.23
2017-03-05T03:58:43.978Z,88.23
2017-03-05T03:59:54.690Z,87.71
2017-03-05T04:01:05.377Z,87.8
2017-03-05T04:02:16.084Z,87.75
2017-03-05T04:03:26.780Z,88.42
2017-03-05T04:04:37.511Z,88.09
2017-03-05T04:05:48.249Z,88.23
2017-03-05T04:06:58.941Z,88.65
2017-03-05T04:08:09.640Z,89.03
2017-03-05T04:09:19.961Z,88.75
2017-03-05T04:10:30.659Z,88.93
2017-03-05T04:11:41.377Z,88.6
2017-03-05T04:12:52.070Z,88.42
2017-03-05T04:14:02.776Z,88.37
2017-03-05T04:15:13.076Z,88.18
2017-03-05T04:16:23.811Z,88.84
2017-03-05T04:17:34.509Z,88.65
2017-03-05T04:18:45.220Z,88.79
2017-03-05T04:19:55.917Z,88.75
2017-03-05T04:21:06.599Z,88.65
2017-03-05T04:22:16.896Z,88.98
2017-03-05T04:23:27.615Z,88.79
2017-03-05T04:24:38.341Z,88.32
2017-03-05T04:25:49.046Z,87.75
2017-03-05T04:26:59.763Z,88.28
2017-03-05T04:28:10.095Z,88.28
2017-03-05T04:29:20.807Z,88.51
2017-03-05T04:30:31.148Z,88.23
2017-03-05T04:31:41.856Z,87.75
2017-03-05T04:32:52.577Z,88.13
2017-03-05T04:34:03.273Z,88.04
2017-03-05T04:35:13.967Z,87.94
2017-03-05T04:36:24.668Z,87.62
2017-03-05T04:37:35.361Z,87.9
2017-03-05T04:38:46.113Z,87.52
2017-03-05T04:39:56.806Z,87.47
2017-03-05T04:41:07.505Z,87.9
2017-03-05T04:42:18.203Z,88.42
2017-03-05T04:43:28.510Z,87.99
2017-03-05T04:44:39.203Z,88.09
2017-03-05T04:45:49.511Z,88.28
2017-03-05T04:47:00.204Z,88.37
2017-03-05T04:48:10.916Z,87.9
2017-03-05T04:49:21.211Z,88.37
2017-03-05T04:50:31.901Z,88.28
2017-03-05T04:51:42.616Z,88.09
2017-03-05T04:52:53.304Z,87.52
2017-03-05T04:54:03.607Z,87.62
2017-03-05T04:55:14.305Z,87.43
2017-03-05T04:56:25.014Z,87.62
2017-03-05T04:57:35.711Z,87.43
2017-03-05T04:58:46.405Z,87.99
2017-03-05T04:59:57.105Z,87.43
2017-03-05T05:01:07.823Z,87.8
2017-03-05T05:02:18.530Z,87.71
2017-03-05T05:03:28.830Z,87.14
2017-03-05T05:04:39.534Z,87.05
2017-03-05T05:05:50.267Z,87.71
2017-03-05T05:07:00.965Z,87.62
2017-03-05T05:08:11.673Z,87.52
2017-03-05T05:09:21.989Z,87.62
2017-03-05T05:10:31.903Z,87.33
2017-03-05T05:11:42.597Z,87.8
2017-03-05T05:12:53.300Z,87.52
2017-03-05T05:14:04.005Z,87.43
2017-03-05T05:15:14.711Z,87.8
2017-03-05T05:16:25.411Z,87.99
2017-03-05T05:17:36.117Z,88.46
2017-03-05T05:18:46.821Z,88.84
2017-03-05T05:19:57.514Z,88.84
2017-03-05T05:21:08.213Z,88.84
2017-03-05T05:22:18.946Z,88.56
2017-03-05T05:23:29.635Z,88.65
2017-03-05T05:24:39.942Z,88.75
2017-03-05T05:25:50.640Z,88.84
2017-03-05T05:27:01.339Z,88.84
2017-03-05T05:28:12.033Z,88.84
2017-03-05T05:29:22.750Z,88.65
2017-03-05T05:30:33.063Z,88.65
2017-03-05T05:31:43.783Z,88.84
2017-03-05T05:32:54.520Z,88.84
2017-03-05T05:34:05.211Z,88.84
2017-03-05T05:35:15.927Z,88.75
2017-03-05T05:36:26.629Z,88.28
2017-03-05T05:37:37.321Z,88.93
2017-03-05T05:38:48.042Z,88.65
2017-03-05T05:39:58.778Z,88.56
2017-03-05T05:41:09.082Z,89.22
2017-03-05T05:42:19.779Z,89.4
2017-03-05T05:43:30.071Z,89.31
2017-03-05T05:44:40.773Z,88.75
2017-03-05T05:45:51.475Z,88.28
2017-03-05T05:47:02.195Z,88.46
2017-03-05T05:48:12.932Z,88.75
2017-03-05T05:49:23.656Z,88.37
2017-03-05T05:50:34.380Z,88.28
2017-03-05T05:51:45.068Z,88.37
2017-03-05T05:52:55.783Z,88.37
2017-03-05T05:54:06.486Z,88.09
2017-03-05T05:55:17.186Z,87.99
2017-03-05T05:56:27.877Z,87.9
2017-03-05T05:57:38.575Z,87.99
2017-03-05T05:58:49.272Z,87.43
2017-03-05T05:59:59.977Z,87.14
2017-03-05T06:01:10.291Z,87.14
2017-03-05T06:02:21.005Z,87.33
2017-03-05T06:03:31.305Z,87.62
2017-03-05T06:04:41.615Z,87.24
2017-03-05T06:05:52.321Z,87.14
2017-03-05T06:07:03.022Z,87.14
2017-03-05T06:08:13.726Z,86.76
2017-03-05T06:09:24.419Z,86.57
2017-03-05T06:10:34.731Z,87.05
2017-03-05T06:11:45.423Z,87.43
2017-03-05T06:12:56.129Z,87.14
2017-03-05T06:14:06.828Z,87.52
2017-03-05T06:15:17.523Z,87.05
2017-03-05T06:16:27.876Z,87.24
2017-03-05T06:17:38.603Z,87.43
2017-03-05T06:18:49.311Z,87.43
2017-03-05T06:20:00.013Z,87.62
2017-03-05T06:21:10.729Z,86.95
2017-03-05T06:22:21.426Z,87.43
2017-03-05T06:23:32.158Z,87.43
2017-03-05T06:24:42.865Z,87.52
2017-03-05T06:25:53.576Z,87.14
2017-03-05T06:27:04.297Z,87.05
2017-03-05T06:28:14.993Z,87.24
2017-03-05T06:29:25.301Z,87.43
2017-03-05T06:30:35.995Z,87.62
2017-03-05T06:31:46.715Z,87.33
2017-03-05T06:32:57.433Z,87.33
2017-03-05T06:34:07.755Z,87.05
2017-03-05T06:35:18.457Z,87.05
2017-03-05T06:36:29.191Z,87.24
2017-03-05T06:37:39.889Z,87.24
2017-03-05T06:38:50.589Z,87.33
2017-03-05T06:40:01.276Z,87.52
2017-03-05T06:41:11.984Z,86.86
2017-03-05T06:42:22.300Z,86.95
2017-03-05T06:43:32.986Z,86.38
2017-03-05T06:44:43.693Z,86.86
2017-03-05T06:45:54.394Z,86.19
2017-03-05T06:47:05.113Z,85.91
2017-03-05T06:48:15.441Z,85.72
2017-03-05T06:49:26.163Z,85.35
2017-03-05T06:50:36.879Z,85.63
2017-03-05T06:51:47.587Z,85.82
2017-03-05T06:52:58.289Z,85.72
2017-03-05T06:54:09.004Z,85.44
2017-03-05T06:55:19.698Z,85.35
2017-03-05T06:56:29.984Z,85.53
2017-03-05T06:57:40.704Z,85.44
2017-03-05T06:58:51.393Z,85.35
2017-03-05T07:00:02.079Z,85.16
2017-03-05T07:01:12.799Z,85.72
2017-03-05T07:02:23.498Z,85.82
2017-03-05T07:03:34.193Z,85.72
2017-03-05T07:04:44.897Z,85.72
2017-03-05T07:05:55.597Z,84.97
2017-03-05T07:07:06.329Z,84.69
2017-03-05T07:08:17.046Z,84.59
2017-03-05T07:09:27.744Z,84.59
2017-03-05T07:10:37.647Z,83.84
2017-03-05T07:11:48.335Z,84.41
2017-03-05T07:12:59.024Z,84.5
2017-03-05T07:14:09.754Z,85.25
2017-03-05T07:15:20.479Z,84.59
2017-03-05T07:16:31.174Z,84.41
2017-03-05T07:17:41.880Z,84.41
2017-03-05T07:18:52.581Z,84.12
2017-03-05T07:20:03.281Z,84.31
2017-03-05T07:21:13.190Z,84.22
2017-03-05T07:22:23.889Z,84.12
2017-03-05T07:23:34.591Z,83.74
2017-03-05T07:24:45.286Z,83.74
2017-03-05T07:25:55.997Z,83.74
2017-03-05T07:27:06.717Z,83.93
2017-03-05T07:28:17.417Z,83.74
2017-03-05T07:29:28.116Z,83.65
2017-03-05T07:30:38.824Z,83.46
2017-03-05T07:31:49.531Z,83.36
2017-03-05T07:33:00.242Z,83.65
2017-03-05T07:34:10.958Z,83.74
2017-03-05T07:35:21.651Z,83.65
2017-03-05T07:36:32.366Z,82.89
2017-03-05T07:37:43.054Z,83.65
2017-03-05T07:38:53.760Z,83.08
2017-03-05T07:40:04.469Z,83.27
2017-03-05T07:41:15.186Z,83.03
2017-03-05T07:42:25.500Z,82.93
2017-03-05T07:43:36.231Z,82.75
2017-03-05T07:44:46.931Z,82.56
2017-03-05T07:45:57.644Z,82.18
2017-03-05T07:47:07.957Z,82.23
2017-03-05T07:48:18.275Z,82.93
2017-03-05T07:49:28.978Z,82.84
2017-03-05T07:50:39.272Z,82.46
2017-03-05T07:51:49.973Z,81.8
2017-03-05T07:53:00.665Z,82.37
2017-03-05T07:54:11.372Z,82.09
2017-03-05T07:55:22.082Z,81.9
2017-03-05T07:56:32.767Z,81.71
2017-03-05T07:57:43.477Z,81.23
2017-03-05T07:58:54.180Z,81.33
2017-03-05T08:00:04.887Z,81.61
2017-03-05T08:01:15.603Z,82.09
2017-03-05T08:02:25.515Z,81.42
2017-03-05T08:03:36.210Z,81.04
2017-03-05T08:04:46.914Z,81.33
2017-03-05T08:05:57.623Z,81.42
2017-03-05T08:07:08.308Z,81.23
2017-03-05T08:08:19.032Z,81.23
2017-03-05T08:09:29.739Z,80.66
2017-03-05T08:10:40.437Z,80.1
2017-03-05T08:11:51.129Z,80.85
2017-03-05T08:13:01.838Z,80.48
2017-03-05T08:14:12.546Z,80.1
2017-03-05T08:15:23.248Z,80
2017-03-05T08:16:33.962Z,80.19
2017-03-05T08:17:44.679Z,80.1
2017-03-05T08:18:55.391Z,80.1
2017-03-05T08:20:06.087Z,80.1
2017-03-05T08:21:16.782Z,80.19
2017-03-05T08:22:27.500Z,79.67
2017-03-05T08:23:38.196Z,79.48
2017-03-05T08:24:48.886Z,79.48
2017-03-05T08:25:59.581Z,79.67
2017-03-05T08:27:10.308Z,79.86
2017-03-05T08:28:21.001Z,79.57
2017-03-05T08:29:31.292Z,79
2017-03-05T08:30:41.581Z,79.38
2017-03-05T08:31:52.277Z,78.63
2017-03-05T08:33:02.992Z,78.16
2017-03-05T08:34:13.682Z,77.97
2017-03-05T08:35:24.390Z,78.53
2017-03-05T08:36:35.094Z,78.06
2017-03-05T08:37:45.425Z,77.87
2017-03-05T08:38:56.126Z,78.06
2017-03-05T08:40:06.849Z,77.69
2017-03-05T08:41:17.548Z,77.31
2017-03-05T08:42:28.279Z,76.31
2017-03-05T08:43:39.008Z,76.5
2017-03-05T08:44:49.711Z,76.5
2017-03-05T08:46:00.416Z,76.68
2017-03-05T08:47:10.737Z,76.4
2017-03-05T08:48:21.436Z,76.5
2017-03-05T08:49:32.168Z,76.68
2017-03-05T08:50:42.874Z,76.02
2017-03-05T08:51:53.574Z,75.83
2017-03-05T08:53:04.306Z,75.74
2017-03-05T08:54:15.007Z,75.64
2017-03-05T08:55:25.732Z,75.17
2017-03-05T08:56:36.460Z,75.36
2017-03-05T08:57:47.172Z,75.26
2017-03-05T08:58:57.873Z,75.07
2017-03-05T09:00:08.168Z,74.6
2017-03-05T09:01:18.914Z,74.79
2017-03-05T09:02:29.616Z,74.98
2017-03-05T09:03:40.331Z,75.45
2017-03-05T09:04:51.051Z,74.69
2017-03-05T09:06:01.792Z,74.41
2017-03-05T09:07:12.517Z,74.41
2017-03-05T09:08:22.853Z,74.6
2017-03-05T09:09:33.157Z,74.64
2017-03-05T09:10:43.455Z,74.07
2017-03-05T09:11:53.780Z,73.32
2017-03-05T09:13:04.491Z,73.13
2017-03-05T09:14:14.806Z,73.5
2017-03-05T09:15:25.508Z,73.32
2017-03-05T09:16:35.809Z,73.5
2017-03-05T09:17:46.515Z,72.75
2017-03-05T09:18:57.230Z,72.94
2017-03-05T09:20:07.928Z,73.32
2017-03-05T09:21:18.630Z,72.94
2017-03-05T09:22:29.358Z,73.22
2017-03-05T09:23:40.076Z,72.75
2017-03-05T09:24:50.775Z,73.13
2017-03-05T09:26:01.502Z,73.32
2017-03-05T09:27:12.200Z,73.32
2017-03-05T09:28:22.895Z,72.37
2017-03-05T09:29:33.614Z,72.28
2017-03-05T09:30:44.315Z,73.03
2017-03-05T09:31:55.019Z,72.18
2017-03-05T09:33:05.726Z,72.09
2017-03-05T09:34:16.449Z,72.18
2017-03-05T09:35:26.762Z,72.28
2017-03-05T09:36:37.476Z,72.28
2017-03-05T09:37:48.196Z,71.99
2017-03-05T09:38:58.910Z,71.42
2017-03-05T09:40:09.617Z,71.71
2017-03-05T09:41:20.312Z,71.61
2017-03-05T09:42:30.639Z,71.71
2017-03-05T09:43:40.960Z,71.71
2017-03-05T09:44:51.676Z,71.71
2017-03-05T09:46:02.394Z,71.71
2017-03-05T09:47:13.083Z,71.8
2017-03-05T09:48:23.794Z,71.99
2017-03-05T09:49:34.498Z,70.67
2017-03-05T09:50:44.399Z,70.86
2017-03-05T09:51:55.107Z,70.67
2017-03-05T09:53:05.818Z,71.23
2017-03-05T09:54:16.524Z,70.76
2017-03-05T09:55:26.827Z,70.67
2017-03-05T09:56:37.534Z,70.86
2017-03-05T09:57:48.238Z,70.67
2017-03-05T09:58:58.950Z,70.57
2017-03-05T10:00:09.659Z,70.39
2017-03-05T10:01:20.381Z,70.95
2017-03-05T10:02:31.084Z,70.04
2017-03-05T10:03:41.815Z,70.1
2017-03-05T10:04:52.120Z,70.7
2017-03-05T10:06:02.466Z,70.61
2017-03-05T10:07:12.801Z,70.14
2017-03-05T10:08:23.115Z,70.04
2017-03-05T10:09:33.420Z,69.76
2017-03-05T10:10:44.136Z,69.95
2017-03-05T10:11:54.867Z,69.76
2017-03-05T10:13:05.577Z,69.76
2017-03-05T10:14:15.881Z,69.38
2017-03-05T10:15:26.593Z,69.47
2017-03-05T10:16:37.309Z,69.57
2017-03-05T10:17:48.016Z,69.38
2017-03-05T10:18:58.733Z,69.57
2017-03-05T10:20:09.444Z,69.38
2017-03-05T10:21:20.150Z,69.47
2017-03-05T10:22:30.453Z,69.28
2017-03-05T10:23:41.169Z,68.05
2017-03-05T10:24:51.874Z,67.2
2017-03-05T10:26:02.585Z,67.01
2017-03-05T10:27:12.916Z,67.49
2017-03-05T10:28:23.610Z,67.58
2017-03-05T10:29:34.316Z,67.77
2017-03-05T10:30:45.033Z,68.43
2017-03-05T10:31:55.743Z,67.77
2017-03-05T10:33:06.469Z,67.86
2017-03-05T10:34:17.192Z,67.2
2017-03-05T10:35:27.898Z,66.63
2017-03-05T10:36:38.628Z,67.2
2017-03-05T10:37:49.337Z,67.77
2017-03-05T10:39:00.040Z,68.08
2017-03-05T10:40:10.745Z,67.9
2017-03-05T10:41:21.056Z,67.24
2017-03-05T10:42:31.366Z,66.76
2017-03-05T10:43:42.076Z,66.76
2017-03-05T10:44:52.798Z,66.19
2017-03-05T10:46:03.496Z,65.91
2017-03-05T10:47:14.192Z,66.47
2017-03-05T10:48:24.896Z,66.47
2017-03-05T10:49:35.592Z,66.09
2017-03-05T10:50:46.298Z,66.03
2017-03-05T10:51:57.012Z,65.37
2017-03-05T10:53:07.741Z,64.14
2017-03-05T10:54:18.457Z,64.81
2017-03-05T10:55:29.184Z,64.23
2017-03-05T10:56:39.510Z,64.61
2017-03-05T10:57:49.814Z,63.95
2017-03-05T10:59:00.521Z,64.49
2017-03-05T11:00:11.242Z,64.11
2017-03-05T11:01:21.551Z,64.81
2017-03-05T11:02:31.476Z,64.71
2017-03-05T11:03:42.177Z,64.52
2017-03-05T11:04:52.885Z,64.52
2017-03-05T11:06:03.610Z,63.85
2017-03-05T11:07:14.314Z,63.85
2017-03-05T11:08:24.620Z,63.76
2017-03-05T11:09:35.336Z,63.57
2017-03-05T11:10:46.063Z,63.76
2017-03-05T11:11:56.768Z,63.67
2017-03-05T11:13:07.503Z,63.01
2017-03-05T11:14:18.228Z,63.1
2017-03-05T11:15:28.931Z,62.66
2017-03-05T11:16:39.642Z,62.18
2017-03-05T11:17:49.953Z,62.18
2017-03-05T11:19:00.684Z,61.52
2017-03-05T11:20:11.398Z,60.57
2017-03-05T11:21:22.117Z,60.47
2017-03-05T11:22:32.825Z,60.28
2017-03-05T11:23:43.526Z,61.43
2017-03-05T11:24:54.284Z,60.95
2017-03-05T11:26:04.999Z,61.27
2017-03-05T11:27:15.327Z,60.22
2017-03-05T11:28:25.230Z,60.31
2017-03-05T11:29:35.928Z,59.37
2017-03-05T11:30:46.639Z,59.94
2017-03-05T11:31:57.365Z,59.49
2017-03-05T11:33:07.674Z,58.92
2017-03-05T11:34:17.993Z,58.83
2017-03-05T11:35:28.697Z,58.48
2017-03-05T11:36:39.395Z,58.39
2017-03-05T11:37:50.140Z,58.51
2017-03-05T11:39:00.850Z,58.32
2017-03-05T11:40:11.568Z,57.59
2017-03-05T11:41:21.914Z,56.48
2017-03-05T11:42:31.840Z,55.24
2017-03-05T11:43:42.545Z,55.05
2017-03-05T11:44:53.276Z,54.13
2017-03-05T11:46:03.999Z,52.15
2017-03-05T11:47:14.324Z,51.39
2017-03-05T11:48:25.068Z,51.87
2017-03-05T11:49:35.796Z,52.25
2017-03-05T11:50:46.543Z,50.66
2017-03-05T11:51:57.273Z,52.28
2017-03-05T11:53:08.013Z,51.04
2017-03-05T11:54:18.365Z,50.4
2017-03-05T11:55:29.072Z,50.56
2017-03-05T11:56:39.778Z,49.54
2017-03-05T11:57:50.496Z,49.16
2017-03-05T11:59:01.223Z,49.06
2017-03-05T12:00:11.940Z,48.78
2017-03-05T12:01:22.673Z,49.23
2017-03-05T12:02:33.390Z,49.71
2017-03-05T12:03:44.160Z,48.27
2017-03-05T12:04:54.473Z,48.94
2017-03-05T12:06:05.197Z,48.94
2017-03-05T12:07:15.542Z,49.49
2017-03-05T12:08:25.844Z,48.16
2017-03-05T12:09:36.568Z,49.27
2017-03-05T12:10:47.293Z,48.9
2017-03-05T12:11:58.034Z,49.27
2017-03-05T12:13:08.774Z,49.85
2017-03-05T12:14:19.510Z,50.01
2017-03-05T12:15:30.230Z,50.29
2017-03-05T12:16:40.554Z,49.82
2017-03-05T12:17:51.276Z,49.82
2017-03-05T12:19:01.984Z,48.96
2017-03-05T12:20:12.701Z,49.04
2017-03-05T12:21:23.403Z,49.7
2017-03-05T12:22:34.116Z,50.46
2017-03-05T12:23:44.854Z,50.27
2017-03-05T12:24:55.564Z,50.65
2017-03-05T12:26:06.297Z,50.46
2017-03-05T12:27:16.991Z,50.46
2017-03-05T12:28:27.319Z,50.56
2017-03-05T12:29:38.043Z,50.37
2017-03-05T12:30:48.754Z,50.46
2017-03-05T12:31:59.466Z,50.43
2017-03-05T12:33:10.198Z,50.81
2017-03-05T12:34:20.900Z,50.53
2017-03-05T12:35:31.629Z,50.91
2017-03-05T12:36:42.356Z,51.2
2017-03-05T12:37:53.069Z,51.2
2017-03-05T12:39:03.806Z,51.29
2017-03-05T12:40:14.553Z,51.48
2017-03-05T12:41:24.899Z,51.57
2017-03-05T12:42:35.632Z,51.39
2017-03-05T12:43:46.331Z,51.2
2017-03-05T12:44:56.658Z,51.76
2017-03-05T12:46:07.374Z,51.76
2017-03-05T12:47:18.101Z,52.24
2017-03-05T12:48:28.806Z,52.24
2017-03-05T12:49:39.549Z,52.5
2017-03-05T12:50:50.252Z,52.24
2017-03-05T12:52:00.968Z,52.31
2017-03-05T12:53:11.289Z,52.02
2017-03-05T12:54:22.011Z,51.74
2017-03-05T12:55:32.734Z,51.36
2017-03-05T12:56:43.458Z,51.74
2017-03-05T12:57:54.160Z,51.17
2017-03-05T12:59:04.877Z,51.93
2017-03-05T13:00:15.602Z,52.5
2017-03-05T13:01:25.934Z,53.07
2017-03-05T13:02:36.645Z,53.35
2017-03-05T13:03:47.364Z,52.22
2017-03-05T13:04:58.098Z,52
2017-03-05T13:06:08.409Z,51.9
2017-03-05T13:07:19.128Z,53.23
2017-03-05T13:08:29.856Z,53.33
2017-03-05T13:09:40.599Z,53.7
2017-03-05T13:10:51.316Z,53.04
2017-03-05T13:12:02.010Z,53.23
2017-03-05T13:13:12.719Z,52.19
2017-03-05T13:14:23.029Z,52.19
2017-03-05T13:15:33.351Z,52.73
2017-03-05T13:16:43.666Z,53.2
2017-03-05T13:17:54.379Z,53.11
2017-03-05T13:19:04.703Z,53.77
2017-03-05T13:20:15.017Z,53.87
2017-03-05T13:21:25.716Z,53.87
2017-03-05T13:22:36.447Z,53.96
2017-03-05T13:23:47.179Z,54.53
2017-03-05T13:24:57.102Z,53.77
2017-03-05T13:26:07.811Z,53.02
2017-03-05T13:27:17.728Z,53.3
2017-03-05T13:28:28.456Z,53.18
2017-03-05T13:29:39.154Z,53.27
2017-03-05T13:30:49.865Z,53.65
2017-03-05T13:32:00.574Z,54.03
2017-03-05T13:33:10.880Z,54.79
2017-03-05T13:34:21.598Z,54.6
2017-03-05T13:35:32.354Z,55.17
2017-03-05T13:36:43.062Z,55.07
2017-03-05T13:37:53.791Z,55.17
2017-03-05T13:39:04.599Z,54.5
2017-03-05T13:40:14.929Z,54.79
2017-03-05T13:41:25.639Z,54.6
2017-03-05T13:42:35.937Z,55.26
2017-03-05T13:43:46.667Z,55.07
2017-03-05T13:44:57.388Z,55.45
2017-03-05T13:46:08.099Z,55.26
2017-03-05T13:47:18.810Z,55.05
2017-03-05T13:48:29.519Z,55.74
2017-03-05T13:49:40.229Z,55.83
2017-03-05T13:50:50.930Z,55.9
2017-03-05T13:52:01.661Z,55.24
2017-03-05T13:53:11.975Z,55.9
2017-03-05T13:54:22.688Z,55.24
2017-03-05T13:55:33.420Z,54.5
2017-03-05T13:56:44.120Z,55.43
2017-03-05T13:57:54.829Z,56.09
2017-03-05T13:59:05.549Z,55.8
2017-03-05T14:00:15.868Z,56.18
2017-03-05T14:01:26.584Z,55.99
2017-03-05T14:02:37.313Z,55.62
2017-03-05T14:03:47.613Z,55.52
2017-03-05T14:04:58.318Z,55.9
2017-03-05T14:06:09.039Z,55.99
2017-03-05T14:07:19.759Z,56.27
2017-03-05T14:08:30.451Z,56.37
2017-03-05T14:09:41.166Z,56.09
2017-03-05T14:10:51.892Z,56.09
2017-03-05T14:12:02.193Z,56.18
2017-03-05T14:13:12.888Z,56.66
2017-03-05T14:14:23.192Z,57.32
2017-03-05T14:15:33.525Z,57.23
2017-03-05T14:16:44.239Z,56.85
2017-03-05T14:17:54.950Z,57.13
2017-03-05T14:19:05.690Z,56.75
2017-03-05T14:20:16.409Z,56.27
2017-03-05T14:21:26.726Z,56.94
2017-03-05T14:22:37.423Z,56.85
2017-03-05T14:23:48.128Z,56.66
2017-03-05T14:24:58.844Z,56.85
2017-03-05T14:26:09.608Z,57.13
2017-03-05T14:27:20.309Z,57.32
2017-03-05T14:28:31.024Z,57.32
2017-03-05T14:29:41.734Z,57.13
2017-03-05T14:30:52.445Z,57.32
2017-03-05T14:32:03.160Z,57.04
2017-03-05T14:33:13.873Z,57.79
2017-03-05T14:34:24.232Z,57.42
2017-03-05T14:35:34.562Z,56.66
2017-03-05T14:36:45.275Z,57.42
2017-03-05T14:37:55.980Z,57.95
2017-03-05T14:39:06.696Z,58.05
2017-03-05T14:40:17.006Z,57.95
2017-03-05T14:41:27.731Z,57.76
2017-03-05T14:42:38.054Z,58.24
2017-03-05T14:43:48.772Z,58.43
2017-03-05T14:44:59.485Z,58.24
2017-03-05T14:46:10.202Z,58.24
2017-03-05T14:47:20.912Z,57.76
2017-03-05T14:48:31.639Z,58.52
2017-03-05T14:49:42.351Z,59
2017-03-05T14:50:53.070Z,58.97
2017-03-05T14:52:03.777Z,59.63
2017-03-05T14:53:14.478Z,59.53
2017-03-05T14:54:25.173Z,59.44
2017-03-05T14:55:35.500Z,59.34
2017-03-05T14:56:46.219Z,60.38
2017-03-05T14:57:56.913Z,60.86
2017-03-05T14:59:07.218Z,60.38
2017-03-05T15:00:17.927Z,60.96
2017-03-05T15:01:28.660Z,61.15
2017-03-05T15:02:39.392Z,61.33
2017-03-05T15:03:49.704Z,61.61
2017-03-05T15:05:00.422Z,62.18
2017-03-05T15:06:11.144Z,62.09
2017-03-05T15:07:21.864Z,62.18
2017-03-05T15:08:32.195Z,62.66
2017-03-05T15:09:42.902Z,62.47
2017-03-05T15:10:53.625Z,62.47
2017-03-05T15:12:04.352Z,62.18
2017-03-05T15:13:14.277Z,62.56